Time;durP1;ratioP1;P1;durP2;ratioP2;P2;SDS_P1;SDS_P2;PMS_P1;PMS_P2;Temp;Humidity;BMP_temperature;BMP_pressure;BME280_temperature;BME280_humidity;BME280_pressure;Samples;Min_cycle;Max_cycle;Signal;HPM_P1;HPM_P2
2024/02/01 00:01:21;;;;;;;;;;;;;;;6.74;100.00;97645.47;5127801;28;19974;-75
2024/02/01 00:03:47;;;;;;;;;;;;;;;6.69;100.00;97651.16;5127767;28;19961;-75
2024/02/01 00:06:13;;;;;;;;;;;;;;;6.67;100.00;97657.50;5127723;28;19931;-75
2024/02/01 00:08:39;;;;;;;;;;;;;;;6.64;100.00;97663.06;5126909;28;20065;-73
2024/02/01 00:11:05;;;;;;;;;;;;;;;6.60;100.00;97657.34;5127605;28;20005;-75
2024/02/01 00:13:31;;;;;;;;;;;;;;;6.56;100.00;97669.09;5127888;28;19939;-75
2024/02/01 00:15:58;;;;;;;;;;;;;;;6.54;100.00;97660.63;5127571;28;19934;-75
2024/02/01 00:18:23;;;;;;;;;;;;;;;6.52;100.00;97661.75;5127497;28;19939;-80
2024/02/01 00:20:49;;;;;;;;;;;;;;;6.51;100.00;97666.16;5092270;28;19959;-74
2024/02/01 00:23:15;;;;;;;;;;;;;;;6.52;100.00;97661.75;5128232;28;19932;-78
2024/02/01 00:25:41;;;;;;;;;;;;;;;6.50;100.00;97669.72;5127885;28;20147;-78
2024/02/01 00:28:07;;;;;;;;;;;;;;;6.52;100.00;97669.56;5127333;28;19935;-73
2024/02/01 00:30:33;;;;;;;;;;;;;;;6.53;100.00;97671.19;5128047;28;19970;-73
2024/02/01 00:32:59;;;;;;;;;;;;;;;6.52;100.00;97667.78;5109568;28;20001;-70
2024/02/01 00:35:24;;;;;;;;;;;;;;;6.53;100.00;97658.16;5126714;28;19940;-72
2024/02/01 00:37:50;;;;;;;;;;;;;;;6.54;100.00;97649.38;5126253;28;19941;-72
2024/02/01 00:40:16;;;;;;;;;;;;;;;6.52;100.00;97649.53;5127067;28;19939;-72
2024/02/01 00:42:42;;;;;;;;;;;;;;;6.49;100.00;97645.47;5109463;28;19967;-72
2024/02/01 00:45:08;;;;;;;;;;;;;;;6.48;100.00;97653.44;5127246;28;19963;-72
2024/02/01 00:47:34;;;;;;;;;;;;;;;6.45;100.00;97659.78;5126928;28;19963;-74
2024/02/01 00:50:00;;;;;;;;;;;;;;;6.44;100.00;97657.34;5108766;28;19940;-75
2024/02/01 00:52:26;;;;;;;;;;;;;;;6.42;100.00;97659.28;5127314;28;19965;-73
2024/02/01 00:54:51;;;;;;;;;;;;;;;6.40;100.00;97658.63;5127641;28;19950;-73
2024/02/01 00:57:17;;;;;;;;;;;;;;;6.39;100.00;97649.22;5127504;28;20216;-72
2024/02/01 00:59:43;;;;;;;;;;;;;;;6.38;100.00;97648.38;5126696;28;20288;-72
2024/02/01 01:02:09;;;;;;;;;;;;;;;6.39;100.00;97646.59;5126646;28;20245;-72
2024/02/01 01:04:35;;;;;;;;;;;;;;;6.39;100.00;97646.59;5126643;28;19936;-73
2024/02/01 01:07:01;;;;;;;;;;;;;;;6.37;100.00;97640.75;5126596;28;19940;-72
2024/02/01 01:09:27;;;;;;;;;;;;;;;6.33;100.00;97629.81;5126472;28;19952;-72
2024/02/01 01:11:53;;;;;;;;;;;;;;;6.31;100.00;97626.56;5126501;28;19947;-69
2024/02/01 01:14:19;;;;;;;;;;;;;;;6.30;100.00;97623.16;5126936;28;19938;-69
2024/02/01 01:16:45;;;;;;;;;;;;;;;6.29;100.00;97618.09;5091269;28;19949;-69
2024/02/01 01:19:11;;;;;;;;;;;;;;;6.28;100.00;97635.50;5126348;28;20188;-69
2024/02/01 01:21:36;;;;;;;;;;;;;;;6.26;100.00;97647.88;5108163;28;19955;-70
2024/02/01 01:24:02;;;;;;;;;;;;;;;6.23;100.00;97648.19;5126255;28;19935;-69
2024/02/01 01:26:28;;;;;;;;;;;;;;;6.21;100.00;97644.13;5108641;28;19939;-71
2024/02/01 01:28:54;;;;;;;;;;;;;;;6.17;100.00;97655.84;5126184;28;20003;-70
2024/02/01 01:31:20;;;;;;;;;;;;;;;6.14;100.00;97651.78;5108596;28;19941;-70
2024/02/01 01:33:46;;;;;;;;;;;;;;;6.14;100.00;97645.75;5108239;28;20140;-70
2024/02/01 01:36:11;;;;;;;;;;;;;;;6.12;100.00;97639.88;5108412;28;19940;-70
2024/02/01 01:38:37;;;;;;;;;;;;;;;6.11;100.00;97644.28;5108340;28;19934;-70
2024/02/01 01:41:03;;;;;;;;;;;;;;;6.12;100.00;97643.28;5107734;28;19997;-68
2024/02/01 01:43:29;;;;;;;;;;;;;;;6.13;100.00;97634.50;5091472;28;19944;-69
2024/02/01 01:46:04;;;;;;;;;;;;;;;6.12;100.00;97642.50;5108244;28;19938;-75
2024/02/01 01:48:32;;;;;;;;;;;;;;;6.12;100.00;97632.06;5108145;28;19944;-72
2024/02/01 01:50:58;;;;;;;;;;;;;;;6.10;100.00;97633.03;5125628;28;19941;-72
2024/02/01 01:53:28;;;;;;;;;;;;;;;6.11;100.00;97639.09;5107546;28;19970;-72
2024/02/01 01:55:56;;;;;;;;;;;;;;;6.11;100.00;97641.69;5125594;28;19944;-72
2024/02/01 01:58:22;;;;;;;;;;;;;;;6.10;100.00;97643.44;5125527;28;20136;-72
2024/02/01 02:00:48;;;;;;;;;;;;;;;6.12;100.00;97651.09;5107179;28;19936;-72
2024/02/01 02:03:14;;;;;;;;;;;;;;;6.10;100.00;97646.06;5125445;28;19938;-72
2024/02/01 02:05:40;;;;;;;;;;;;;;;6.10;100.00;97640.03;5125403;28;19936;-77
2024/02/01 02:08:07;;;;;;;;;;;;;;;6.12;100.00;97642.50;5126040;28;20291;-76
2024/02/01 02:10:33;;;;;;;;;;;;;;;6.13;100.00;97641.50;5125365;28;19934;-75
2024/02/01 02:12:59;;;;;;;;;;;;;;;6.12;100.00;97635.47;5125251;28;20130;-75
2024/02/01 02:15:30;;;;;;;;;;;;;;;6.12;100.00;97638.09;5125271;28;19938;-74
2024/02/01 02:17:56;;;;;;;;;;;;;;;6.08;100.00;97634.19;5125986;28;20101;-76
2024/02/01 02:20:24;;;;;;;;;;;;;;;6.01;100.00;97636.59;5125159;28;19967;-78
2024/02/01 02:22:54;;;;;;;;;;;;;;;5.98;100.00;97647.31;5125004;28;19970;-75
2024/02/01 02:25:20;;;;;;;;;;;;;;;6.00;100.00;97623.75;5125082;28;19981;-69
2024/02/01 02:27:46;;;;;;;;;;;;;;;6.10;100.00;97643.44;5089865;28;19940;-70
2024/02/01 02:30:12;;;;;;;;;;;;;;;6.25;100.00;97635.81;5124945;28;20278;-70
2024/02/01 02:32:39;;;;;;;;;;;;;;;6.35;100.00;97648.72;5107496;28;19957;-70
2024/02/01 02:35:12;;;;;;;;;;;;;;;6.43;100.00;97653.13;5125394;28;19930;-69
2024/02/01 02:37:47;;;;;;;;;;;;;;;6.54;100.00;97652.78;5124879;28;19934;-70
2024/02/01 02:40:14;;;;;;;;;;;;;;;6.64;100.00;97657.84;5106626;28;20166;-69
2024/02/01 02:42:40;;;;;;;;;;;;;;;6.75;100.00;97669.75;5125483;28;19953;-69
2024/02/01 02:45:06;;;;;;;;;;;;;;;6.83;100.00;97667.16;5124696;28;20274;-69
2024/02/01 02:47:32;;;;;;;;;;;;;;;6.89;100.00;97669.09;5124758;28;19932;-68
2024/02/01 02:49:58;;;;;;;;;;;;;;;6.95;100.00;97665.00;5124665;28;19941;-69
2024/02/01 02:52:24;;;;;;;;;;;;;;;7.00;100.00;97676.56;5124449;28;19961;-68
2024/02/01 02:54:50;;;;;;;;;;;;;;;7.03;100.00;97673.63;5124636;28;19935;-69
2024/02/01 02:57:16;;;;;;;;;;;;;;;7.06;100.00;97662.88;5124604;28;19937;-68
2024/02/01 02:59:41;;;;;;;;;;;;;;;7.09;100.00;97675.56;5124588;28;19937;-70
2024/02/01 03:02:07;;;;;;;;;;;;;;;7.09;100.00;97685.19;5124750;28;20020;-68
2024/02/01 03:04:36;;;;;;;;;;;;;;;7.06;100.00;97670.69;5106423;28;19965;-69
2024/02/01 03:07:07;;;;;;;;;;;;;;;7.07;100.00;97669.69;5125023;28;19937;-68
2024/02/01 03:09:32;;;;;;;;;;;;;;;7.06;100.00;97655.06;5124546;28;19960;-67
2024/02/01 03:11:58;;;;;;;;;;;;;;;7.08;100.00;97654.91;5124899;28;19945;-68
2024/02/01 03:14:25;;;;;;;;;;;;;;;7.07;100.00;97663.69;5106223;28;19947;-69
2024/02/01 03:16:51;;;;;;;;;;;;;;;7.05;100.00;97656.00;5124313;28;19938;-76
2024/02/01 03:19:16;;;;;;;;;;;;;;;7.03;100.00;97652.75;5124323;28;19938;-77
2024/02/01 03:21:42;;;;;;;;;;;;;;;7.02;100.00;97647.72;5089552;28;19960;-78
2024/02/01 03:24:08;;;;;;;;;;;;;;;7.03;100.00;97639.72;5124779;28;19939;-79
2024/02/01 03:26:34;;;;;;;;;;;;;;;7.03;100.00;97641.50;5124286;28;20250;-76
2024/02/01 03:29:00;;;;;;;;;;;;;;;7.04;100.00;97649.19;5106216;28;19947;-79
2024/02/01 03:31:35;;;;;;;;;;;;;;;7.05;100.00;97639.56;5124990;28;19936;-77
2024/02/01 03:34:10;;;;;;;;;;;;;;;7.05;100.00;97635.16;5105334;28;19938;-79
2024/02/01 03:36:39;;;;;;;;;;;;;;;7.06;100.00;97622.94;5124987;28;20098;-77
2024/02/01 03:39:23;;;;;;;;;;;;;;;7.03;100.00;97620.66;5105907;28;19938;-70
2024/02/01 03:41:50;;;;;;;;;;;;;;;7.01;100.00;97597.34;5106775;28;19955;-69
2024/02/01 03:44:16;;;;;;;;;;;;;;;6.99;100.00;97611.53;5124595;28;19934;-70
2024/02/01 03:46:41;;;;;;;;;;;;;;;6.97;100.00;97635.19;5105916;28;19943;-70
2024/02/01 03:49:10;;;;;;;;;;;;;;;6.96;100.00;97630.13;5105314;28;19937;-69
2024/02/01 03:51:37;;;;;;;;;;;;;;;6.95;100.00;97623.28;5124036;28;19953;-69
2024/02/01 03:54:08;;;;;;;;;;;;;;;6.93;100.00;97625.22;5124026;28;19974;-71
2024/02/01 03:56:34;;;;;;;;;;;;;;;6.91;100.00;97628.03;5106289;28;19944;-76
2024/02/01 03:59:01;;;;;;;;;;;;;;;6.90;100.00;97632.41;5123957;28;19935;-77
2024/02/01 04:01:27;;;;;;;;;;;;;;;6.87;100.00;97637.97;5124385;28;19957;-77
2024/02/01 04:03:54;;;;;;;;;;;;;;;6.86;100.00;97633.72;5123927;28;19937;-78
2024/02/01 04:06:24;;;;;;;;;;;;;;;6.84;100.00;97648.69;5123966;28;19939;-76
2024/02/01 04:08:50;;;;;;;;;;;;;;;6.82;100.00;97637.63;5124041;28;19969;-77
2024/02/01 04:11:16;;;;;;;;;;;;;;;6.81;100.00;97630.78;5123826;28;20239;-78
2024/02/01 04:13:42;;;;;;;;;;;;;;;6.82;100.00;97634.22;5125291;28;19942;-70
2024/02/01 04:16:08;;;;;;;;;;;;;;;6.82;100.00;97627.19;5127549;28;19935;-68
2024/02/01 04:18:34;;;;;;;;;;;;;;;6.83;100.00;97623.63;5127619;28;19942;-68
2024/02/01 04:21:00;;;;;;;;;;;;;;;6.86;100.00;97619.88;5109265;28;19941;-67
2024/02/01 04:23:26;;;;;;;;;;;;;;;6.89;100.00;97619.56;5127416;28;19957;-69
2024/02/01 04:25:52;;;;;;;;;;;;;;;6.93;100.00;97620.84;5109216;28;19934;-69
2024/02/01 04:28:18;;;;;;;;;;;;;;;6.98;100.00;97622.94;5127403;28;19940;-69
2024/02/01 04:30:53;;;;;;;;;;;;;;;6.98;100.00;97625.56;5127269;28;19935;-74
2024/02/01 04:33:20;;;;;;;;;;;;;;;6.99;100.00;97624.56;5127861;28;19943;-70
2024/02/01 04:35:46;;;;;;;;;;;;;;;6.97;100.00;97629.97;5128003;28;19935;-70
2024/02/01 04:38:12;;;;;;;;;;;;;;;6.96;100.00;97627.53;5127144;28;20239;-72
2024/02/01 04:40:39;;;;;;;;;;;;;;;6.95;100.00;97626.72;5127367;28;19940;-72
2024/02/01 04:43:05;;;;;;;;;;;;;;;6.96;100.00;97637.94;5127062;28;20204;-72
2024/02/01 04:45:31;;;;;;;;;;;;;;;6.94;100.00;97639.91;5126997;28;20129;-72
2024/02/01 04:47:57;;;;;;;;;;;;;;;6.93;100.00;97643.47;5126929;28;19945;-71
2024/02/01 04:50:23;;;;;;;;;;;;;;;6.91;100.00;97633.25;5108757;28;19935;-71
2024/02/01 04:52:49;;;;;;;;;;;;;;;6.91;100.00;97633.25;5126657;28;19964;-74
2024/02/01 04:55:15;;;;;;;;;;;;;;;6.91;100.00;97625.41;5109336;28;19944;-74
2024/02/01 04:57:41;;;;;;;;;;;;;;;6.91;100.00;97622.81;5109255;28;19938;-74
2024/02/01 05:00:13;;;;;;;;;;;;;;;6.90;100.00;97618.56;5126715;28;20113;-74
2024/02/01 05:02:40;;;;;;;;;;;;;;;6.91;100.00;97622.81;5127153;28;19953;-74
2024/02/01 05:05:07;;;;;;;;;;;;;;;6.90;100.00;97613.34;5091409;28;19941;-74
2024/02/01 05:07:33;;;;;;;;;;;;;;;6.90;100.00;97606.31;5126558;28;20243;-69
2024/02/01 05:09:59;;;;;;;;;;;;;;;6.91;100.00;97610.56;5127084;28;20017;-68
2024/02/01 05:12:25;;;;;;;;;;;;;;;6.89;100.00;97620.34;5108435;28;20228;-69
2024/02/01 05:14:50;;;;;;;;;;;;;;;6.89;100.00;97620.34;5108164;28;20249;-68
2024/02/01 05:17:16;;;;;;;;;;;;;;;6.89;100.00;97619.56;5126963;28;19944;-69
2024/02/01 05:19:42;;;;;;;;;;;;;;;6.87;100.00;97611.88;5108052;28;19932;-69
2024/02/01 05:22:08;;;;;;;;;;;;;;;6.87;100.00;97611.88;5126296;28;19950;-69
2024/02/01 05:24:34;;;;;;;;;;;;;;;6.89;100.00;97616.94;5125914;28;19934;-69
2024/02/01 05:27:07;;;;;;;;;;;;;;;6.88;100.00;97621.31;5107980;28;19949;-74
2024/02/01 05:29:34;;;;;;;;;;;;;;;6.87;100.00;97621.50;5126736;28;20108;-69
2024/02/01 05:32:00;;;;;;;;;;;;;;;6.86;100.00;97612.84;5126685;28;20122;-68
2024/02/01 05:34:26;;;;;;;;;;;;;;;6.86;100.00;97612.03;5126056;28;19933;-69
2024/02/01 05:36:52;;;;;;;;;;;;;;;6.85;100.00;97618.25;5125992;28;20218;-69
2024/02/01 05:39:25;;;;;;;;;;;;;;;6.85;100.00;97607.81;5126697;28;19941;-69
2024/02/01 05:41:58;;;;;;;;;;;;;;;6.85;100.00;97602.59;5125844;28;19948;-70
2024/02/01 05:44:25;;;;;;;;;;;;;;;6.82;100.00;97593.28;5125940;28;19938;-70
2024/02/01 05:46:54;;;;;;;;;;;;;;;6.79;100.00;97588.44;5126079;28;19930;-70
2024/02/01 05:49:22;;;;;;;;;;;;;;;6.81;100.00;97580.44;5107651;28;20159;-70
2024/02/01 05:51:48;;;;;;;;;;;;;;;6.80;100.00;97578.81;5125703;28;19941;-70
2024/02/01 05:54:14;;;;;;;;;;;;;;;6.78;100.00;97584.19;5125522;28;19937;-69
2024/02/01 05:56:42;;;;;;;;;;;;;;;6.78;100.00;97578.16;5125568;28;19944;-70
2024/02/01 05:59:10;;;;;;;;;;;;;;;6.76;100.00;97578.34;5125039;28;20129;-69
2024/02/01 06:01:36;;;;;;;;;;;;;;;6.77;100.00;97581.75;5125454;28;19944;-70
2024/02/01 06:04:02;;;;;;;;;;;;;;;6.78;100.00;97585.97;5107239;28;20041;-75
2024/02/01 06:06:29;;;;;;;;;;;;;;;6.78;100.00;97588.59;5107369;28;19940;-74
2024/02/01 06:08:57;;;;;;;;;;;;;;;6.77;100.00;97584.38;5126069;28;20230;-73
2024/02/01 06:11:23;;;;;;;;;;;;;;;6.77;100.00;97587.78;5125291;28;19943;-73
2024/02/01 06:13:49;;;;;;;;;;;;;;;6.78;100.00;97606.84;5126056;28;20224;-73
2024/02/01 06:16:14;;;;;;;;;;;;;;;6.77;100.00;97606.03;5125778;28;19945;-73
2024/02/01 06:18:40;;;;;;;;;;;;;;;6.78;100.00;97606.84;5125629;28;19947;-73
2024/02/01 06:21:06;;;;;;;;;;;;;;;6.76;100.00;97622.66;5125138;28;19957;-71
2024/02/01 06:23:32;;;;;;;;;;;;;;;6.77;100.00;97618.25;5107592;28;19964;-69
2024/02/01 06:25:58;;;;;;;;;;;;;;;6.77;100.00;97618.25;5125045;28;19941;-69
2024/02/01 06:28:24;;;;;;;;;;;;;;;6.75;100.00;97622.81;5125768;28;19933;-70
2024/02/01 06:30:49;;;;;;;;;;;;;;;6.73;100.00;97625.59;5107280;28;19977;-69
2024/02/01 06:33:15;;;;;;;;;;;;;;;6.73;100.00;97630.00;5125229;28;19998;-69
2024/02/01 06:35:43;;;;;;;;;;;;;;;6.68;100.00;97623.47;5125105;28;19933;-70
2024/02/01 06:38:17;;;;;;;;;;;;;;;6.66;100.00;97625.44;5107181;28;19963;-70
2024/02/01 06:43:17;;;;;;;;;;;;;;;6.69;100.00;97632.91;5106446;28;19954;-79
2024/02/01 06:45:58;;;;;;;;;;;;;;;6.73;100.00;97632.59;5106913;28;19933;-78
2024/02/01 06:48:30;;;;;;;;;;;;;;;6.75;100.00;97636.66;5124830;28;20208;-77
2024/02/01 06:50:57;;;;;;;;;;;;;;;6.76;100.00;97638.31;5107625;28;19948;-77
2024/02/01 06:53:32;;;;;;;;;;;;;;;6.77;100.00;97639.91;5106331;28;19969;-77
2024/02/01 06:56:00;;;;;;;;;;;;;;;6.76;100.00;97638.31;5107233;28;20219;-79
2024/02/01 06:58:47;;;;;;;;;;;;;;;6.75;100.00;97647.09;5124230;28;20453;-80
2024/02/01 07:01:24;;;;;;;;;;;;;;;6.74;100.00;97652.47;5124589;28;19962;-78
2024/02/01 07:06:35;;;;;;;;;;;;;;;6.71;100.00;97662.25;5107081;28;20214;-78
2024/02/01 07:09:27;;;;;;;;;;;;;;;6.71;100.00;97664.03;5124462;28;19955;-78
2024/02/01 07:12:09;;;;;;;;;;;;;;;6.70;100.00;97667.63;5124972;28;19939;-79
2024/02/01 07:14:39;;;;;;;;;;;;;;;6.69;100.00;97672.00;5124997;28;19935;-79
2024/02/01 07:19:53;;;;;;;;;;;;;;;6.68;100.00;97680.00;5124948;28;19933;-70
2024/02/01 07:22:35;;;;;;;;;;;;;;;6.69;100.00;97677.22;5105996;28;19959;-70
2024/02/01 07:25:11;;;;;;;;;;;;;;;6.66;100.00;97664.53;5124577;28;20245;-69
2024/02/01 07:57:52;;;;;;;;;;;;;;;6.58;100.00;97666.31;5128747;28;19947;-73
2024/02/01 08:00:27;;;;;;;;;;;;;;;6.56;100.00;97663.88;5127947;28;20145;-73
2024/02/01 08:03:22;;;;;;;;;;;;;;;6.57;100.00;97665.50;5128379;28;19967;-72
2024/02/01 08:08:36;;;;;;;;;;;;;;;6.62;100.00;97662.41;5128255;28;19951;-73
2024/02/01 08:11:02;;;;;;;;;;;;;;;6.63;100.00;97667.44;5110380;28;20093;-72
2024/02/01 08:13:28;;;;;;;;;;;;;;;6.63;100.00;97670.06;5127713;28;20127;-72
2024/02/01 08:15:56;;;;;;;;;;;;;;;6.63;100.00;97677.06;5092527;28;19938;-78
2024/02/01 08:18:34;;;;;;;;;;;;;;;6.62;100.00;97675.44;5110102;28;19938;-75
2024/02/01 08:21:03;;;;;;;;;;;;;;;6.60;100.00;97674.78;5127500;28;19937;-74
2024/02/01 08:23:29;;;;;;;;;;;;;;;6.59;100.00;97688.78;5127980;28;19954;-75
2024/02/01 08:26:02;;;;;;;;;;;;;;;6.59;100.00;97676.56;5128247;28;20228;-75
2024/02/01 08:28:32;;;;;;;;;;;;;;;6.62;100.00;97686.69;5127904;28;19937;-74
2024/02/01 08:31:03;;;;;;;;;;;;;;;6.63;100.00;97684.88;5109861;28;19938;-70
2024/02/01 08:33:29;;;;;;;;;;;;;;;6.62;100.00;97694.50;5109804;28;19943;-70
2024/02/01 08:35:55;;;;;;;;;;;;;;;6.63;100.00;97687.50;5127707;28;20018;-70
2024/02/01 08:38:21;;;;;;;;;;;;;;;6.66;100.00;97690.59;5109630;28;20220;-70
2024/02/01 08:40:47;;;;;;;;;;;;;;;6.67;100.00;97697.44;5127188;28;19945;-70
2024/02/01 08:43:13;;;;;;;;;;;;;;;6.66;100.00;97689.78;5109478;28;19963;-71
2024/02/01 08:45:40;;;;;;;;;;;;;;;6.64;100.00;97695.16;5127053;28;19979;-70
2024/02/01 08:48:08;;;;;;;;;;;;;;;6.63;100.00;97687.50;5126999;28;20119;-72
2024/02/01 08:50:34;;;;;;;;;;;;;;;6.63;100.00;97698.72;5127039;28;20122;-69
2024/02/01 08:53:00;;;;;;;;;;;;;;;6.64;100.00;97704.78;5127321;28;19968;-70
2024/02/01 08:55:27;;;;;;;;;;;;;;;6.64;100.00;97710.81;5127431;28;19953;-71
2024/02/01 08:57:54;;;;;;;;;;;;;;;6.65;100.00;97699.38;5127319;28;19933;-70
2024/02/01 09:00:25;;;;;;;;;;;;;;;6.68;100.00;97703.47;5126558;28;19933;-69
2024/02/01 09:03:11;;;;;;;;;;;;;;;6.69;100.00;97708.50;5109011;28;19954;-70
2024/02/01 09:05:40;;;;;;;;;;;;;;;6.74;100.00;97708.03;5126722;28;19935;-70
2024/02/01 09:08:35;;;;;;;;;;;;;;;6.74;100.00;97699.38;5126598;28;19945;-70
2024/02/01 09:11:09;;;;;;;;;;;;;;;6.78;100.00;97711.94;5127323;28;19940;-74
2024/02/01 09:13:36;;;;;;;;;;;;;;;6.80;100.00;97715.19;5108511;28;19951;-75
2024/02/01 09:16:02;;;;;;;;;;;;;;;6.82;100.00;97712.44;5126396;28;19929;-73
2024/02/01 09:18:28;;;;;;;;;;;;;;;6.85;100.00;97712.94;5108330;28;19939;-75
2024/02/01 09:20:54;;;;;;;;;;;;;;;6.88;100.00;97709.97;5108070;28;19941;-75
2024/02/01 09:23:22;;;;;;;;;;;;;;;6.90;100.00;97709.81;5126206;28;20156;-75
2024/02/01 09:25:48;;;;;;;;;;;;;;;6.92;100.00;97713.09;5126213;28;20119;-71
2024/02/01 09:28:14;;;;;;;;;;;;;;;7.01;100.00;97714.69;5126726;28;19940;-73
2024/02/01 09:30:45;;;;;;;;;;;;;;;7.11;100.00;97706.72;5127026;28;20066;-74
2024/02/01 09:33:18;;;;;;;;;;;;;;;7.19;100.00;97714.53;5108728;28;19950;-73
2024/02/01 09:35:44;;;;;;;;;;;;;;;7.38;100.00;97715.97;5107777;28;19945;-73
2024/02/01 09:38:11;;;;;;;;;;;;;;;7.48;100.00;97718.41;5108553;28;20021;-73
2024/02/01 09:40:43;;;;;;;;;;;;;;;7.50;100.00;97716.47;5091544;28;19941;-73
2024/02/01 09:43:22;;;;;;;;;;;;;;;7.47;100.00;97722.00;5108391;28;19962;-75
2024/02/01 09:45:49;;;;;;;;;;;;;;;7.46;100.00;97726.41;5108349;28;20338;-70
2024/02/01 09:48:18;;;;;;;;;;;;;;;7.48;100.00;97732.28;5125753;28;19942;-70
2024/02/01 09:50:56;;;;;;;;;;;;;;;7.48;100.00;97727.06;5125736;28;19947;-70
2024/02/01 09:53:22;;;;;;;;;;;;;;;7.50;100.00;97730.31;5125618;28;19966;-70
2024/02/01 09:55:50;;;;;;;;;;;;;;;7.56;100.00;97731.47;5126252;28;19965;-70
2024/02/01 09:58:17;;;;;;;;;;;;;;;7.63;100.00;97735.00;5108099;28;19940;-70
2024/02/01 10:00:44;;;;;;;;;;;;;;;7.66;100.00;97739.88;5125569;28;19945;-70
2024/02/01 10:03:13;;;;;;;;;;;;;;;7.70;100.00;97746.41;5125510;28;19957;-72
2024/02/01 10:05:40;;;;;;;;;;;;;;;7.71;100.00;97744.63;5107321;28;20242;-70
2024/02/01 10:08:13;;;;;;;;;;;;;;;7.71;100.00;97752.47;5125920;28;19952;-70
2024/02/01 10:10:43;;;;;;;;;;;;;;;7.71;100.00;97748.06;5124552;28;20221;-69
2024/02/01 10:13:13;;;;;;;;;;;;;;;7.73;100.00;97759.16;5125115;28;19933;-70
2024/02/01 10:15:46;;;;;;;;;;;;;;;7.75;100.00;97747.69;5107726;28;19944;-70
2024/02/01 10:18:16;;;;;;;;;;;;;;;7.76;100.00;97752.75;5125294;28;20123;-70
2024/02/01 10:20:58;;;;;;;;;;;;;;;7.81;100.00;97754.88;5125682;28;19944;-73
2024/02/01 10:23:24;;;;;;;;;;;;;;;7.85;100.00;97746.56;5125648;28;19966;-70
2024/02/01 10:25:54;;;;;;;;;;;;;;;7.92;100.00;97742.28;5125832;28;19931;-71
2024/02/01 10:28:21;;;;;;;;;;;;;;;8.01;100.00;97732.59;5125045;28;19933;-70
2024/02/01 10:30:49;;;;;;;;;;;;;;;8.11;100.00;97735.81;5125038;28;19939;-71
2024/02/01 10:33:15;;;;;;;;;;;;;;;8.18;100.00;97738.56;5124981;28;20016;-71
2024/02/01 10:35:42;;;;;;;;;;;;;;;8.22;100.00;97734.63;5125004;28;20128;-71
2024/02/01 10:38:11;;;;;;;;;;;;;;;8.25;100.00;97736.09;5106625;28;19945;-72
2024/02/01 10:40:43;;;;;;;;;;;;;;;8.28;100.00;97727.91;5106659;28;19937;-73
2024/02/01 10:43:12;;;;;;;;;;;;;;;8.32;100.00;97729.22;5125927;28;19950;-72
2024/02/01 10:45:40;;;;;;;;;;;;;;;8.32;100.00;97724.78;5106759;28;20190;-71
2024/02/01 10:48:09;;;;;;;;;;;;;;;8.34;100.00;97724.63;5107356;28;19960;-71
2024/02/01 10:50:39;;;;;;;;;;;;;;;8.37;100.00;97720.84;5124724;28;19945;-71
2024/02/01 10:53:11;;;;;;;;;;;;;;;8.40;100.00;97720.47;5106278;28;20171;-71
2024/02/01 10:55:38;;;;;;;;;;;;;;;8.46;100.00;97725.06;5125518;28;19948;-71
2024/02/01 10:58:04;;;;;;;;;;;;;;;8.48;100.00;97717.84;5124593;28;19957;-70
2024/02/01 11:00:31;;;;;;;;;;;;;;;8.55;100.00;97721.44;5124624;28;19932;-71
2024/02/01 11:03:00;;;;;;;;;;;;;;;8.60;100.00;97711.25;5106482;28;19958;-70
2024/02/01 11:05:26;;;;;;;;;;;;;;;8.65;100.00;97708.94;5124711;28;20116;-71
2024/02/01 11:07:52;;;;;;;;;;;;;;;8.68;100.00;97713.81;5124357;28;19957;-71
2024/02/01 11:10:23;;;;;;;;;;;;;;;8.70;100.00;97709.22;5124939;28;19933;-71
2024/02/01 11:12:54;;;;;;;;;;;;;;;8.74;100.00;97712.31;5124446;28;19935;-71
2024/02/01 11:15:23;;;;;;;;;;;;;;;8.75;100.00;97711.31;5124960;28;20024;-77
2024/02/01 11:17:49;;;;;;;;;;;;;;;8.69;100.00;97706.75;5124424;28;19938;-70
2024/02/01 11:20:22;;;;;;;;;;;;;;;8.69;100.00;97705.00;5124399;28;20221;-70
2024/02/01 11:22:55;;;;;;;;;;;;;;;8.69;100.00;97702.38;5125968;28;19961;-69
2024/02/01 11:25:26;;;;;;;;;;;;;;;8.66;100.00;97694.84;5128614;28;19935;-70
2024/02/01 11:27:51;;;;;;;;;;;;;;;8.66;100.00;97694.06;5110175;28;19943;-70
2024/02/01 11:30:24;;;;;;;;;;;;;;;8.67;100.00;97698.28;5128534;28;19934;-69
2024/02/01 11:32:50;;;;;;;;;;;;;;;8.70;100.00;97700.56;5128829;28;20120;-70
2024/02/01 11:35:16;;;;;;;;;;;;;;;8.73;100.00;97697.59;5128996;28;19938;-77
2024/02/01 11:37:42;;;;;;;;;;;;;;;8.79;100.00;97698.69;5128306;28;19930;-70
2024/02/01 11:40:15;;;;;;;;;;;;;;;8.83;100.00;97690.31;5110766;28;19938;-70
2024/02/01 11:42:41;;;;;;;;;;;;;;;8.85;100.00;97690.16;5129065;28;19954;-70
2024/02/01 11:45:08;;;;;;;;;;;;;;;8.89;100.00;97687.00;5128262;28;19942;-70
2024/02/01 11:47:34;;;;;;;;;;;;;;;8.92;100.00;97683.22;5093844;28;19940;-70
2024/02/01 11:50:00;;;;;;;;;;;;;;;8.98;100.00;97686.94;5128906;28;19977;-70
2024/02/01 11:52:45;;;;;;;;;;;;;;;9.02;100.00;97680.34;5128340;28;19966;-74
2024/02/01 11:55:11;;;;;;;;;;;;;;;9.07;100.00;97688.47;5128125;28;20156;-70
2024/02/01 11:57:57;;;;;;;;;;;;;;;9.10;100.00;97693.38;5128533;28;19943;-71
2024/02/01 12:00:23;;;;;;;;;;;;;;;9.10;100.00;97688.94;5128018;28;19931;-70
2024/02/01 12:02:48;;;;;;;;;;;;;;;9.11;100.00;97687.13;5127831;28;19933;-71
2024/02/01 12:05:20;;;;;;;;;;;;;;;9.13;100.00;97688.59;5127910;28;20016;-71
2024/02/01 12:07:47;;;;;;;;;;;;;;;9.16;100.00;97690.03;5127756;28;19945;-71
2024/02/01 12:10:15;;;;;;;;;;;;;;;9.16;100.00;97691.84;5127797;28;19944;-78
2024/02/01 12:12:47;;;;;;;;;;;;;;;9.14;100.00;97698.06;5109564;28;19940;-73
2024/02/01 12:15:15;;;;;;;;;;;;;;;9.11;100.00;97690.59;5110021;28;20089;-75
2024/02/01 12:17:42;;;;;;;;;;;;;;;9.08;100.00;97687.50;5127612;28;19946;-75
2024/02/01 12:20:17;;;;;;;;;;;;;;;9.05;100.00;97688.66;5127611;28;19944;-75
2024/02/01 12:22:44;;;;;;;;;;;;;;;9.04;100.00;97700.13;5128094;28;19935;-75
2024/02/01 12:25:12;;;;;;;;;;;;;;;8.98;100.00;97695.59;5127540;28;20124;-75
2024/02/01 12:27:39;;;;;;;;;;;;;;;8.91;100.00;97695.47;5127492;28;19942;-75
2024/02/01 12:30:11;;;;;;;;;;;;;;;8.88;100.00;97690.63;5109159;28;19944;-70
2024/02/01 12:32:45;;;;;;;;;;;;;;;8.89;100.00;97680.97;5109921;28;19939;-70
2024/02/01 12:35:12;;;;;;;;;;;;;;;8.96;100.00;97674.03;5083753;28;20237;-70
2024/02/01 12:37:40;;;;;;;;;;;;;;;9.02;100.00;97672.50;5085309;28;20268;-70
2024/02/01 12:40:10;;;;;;;;;;;;;;;9.05;100.00;97672.13;5084988;28;20223;-70
2024/02/01 12:42:38;;;;;;;;;;;;;;;9.09;100.00;97660.31;5084734;28;19934;-70
2024/02/01 12:45:04;;;;;;;;;;;;;;;9.17;100.00;97665.47;5084742;28;19976;-70
2024/02/01 12:47:37;;;;;;;;;;;;;;;9.22;100.00;97665.78;5085439;28;19947;-72
2024/02/01 12:50:06;;;;;;;;;;;;;;;9.25;100.00;97661.97;5084275;28;19954;-70
2024/02/01 12:52:35;;;;;;;;;;;;;;;9.26;100.00;97672.28;5084354;28;19962;-70
2024/02/01 12:55:01;;;;;;;;;;;;;;;9.23;100.00;97669.19;5084990;28;19943;-70
2024/02/01 12:57:27;;;;;;;;;;;;;;;9.17;100.00;97675.94;5084510;28;19975;-70
2024/02/01 12:59:54;;;;;;;;;;;;;;;9.19;100.00;97668.72;5084885;28;19935;-70
2024/02/01 13:02:20;;;;;;;;;;;;;;;9.19;100.00;97671.34;5084308;28;20256;-70
2024/02/01 13:04:46;;;;;;;;;;;;;;;9.23;100.00;97674.44;5084774;28;19953;-70
2024/02/01 13:07:12;;;;;;;;;;;;;;;9.31;100.00;97669.13;5122920;28;19947;-73
2024/02/01 13:09:41;;;;;;;;;;;;;;;9.56;100.00;97677.53;5108470;28;19994;-73
2024/02/01 13:12:18;;;;;;;;;;;;;;;9.70;100.00;97684.56;5108743;28;20232;-73
2024/02/01 13:14:45;;;;;;;;;;;;;;;9.71;100.00;97685.38;5126457;28;19933;-73
2024/02/01 13:17:11;;;;;;;;;;;;;;;9.60;100.00;97691.88;5126388;28;20227;-73
2024/02/01 13:19:40;;;;;;;;;;;;;;;9.50;100.00;97694.75;5126894;28;19931;-73
2024/02/01 13:22:07;;;;;;;;;;;;;;;9.37;100.00;97694.59;5126269;28;19938;-73
2024/02/01 13:24:33;;;;;;;;;;;;;;;9.25;100.00;97703.88;5126045;28;19972;-71
2024/02/01 13:26:59;;;;;;;;;;;;;;;9.13;100.00;97693.00;5126082;28;20124;-70
2024/02/01 13:29:25;;;;;;;;;;;;;;;9.01;100.00;97697.03;5091155;28;20035;-70
2024/02/01 13:31:50;;;;;;;;;;;;;;;8.93;100.00;97695.31;5126760;28;19940;-70
2024/02/01 13:34:16;;;;;;;;;;;;;;;8.87;100.00;97696.03;5126116;28;19978;-70